sensor_id;sensor_type;location;lat;lon;timestamp;P1;durP1;ratioP1;P2;durP2;ratioP2
15443;SDS011;7822;48.146;11.576;2022-11-20T00:02:05;2.97;;;1.80;;
15443;SDS011;7822;48.146;11.576;2022-11-20T00:04:33;2.63;;;1.80;;
15443;SDS011;7822;48.146;11.576;2022-11-20T00:07:02;2.33;;;1.60;;
15443;SDS011;7822;48.146;11.576;2022-11-20T00:09:30;2.07;;;1.70;;
15443;SDS011;7822;48.146;11.576;2022-11-20T00:11:58;1.50;;;1.40;;
15443;SDS011;7822;48.146;11.576;2022-11-20T00:14:25;2.40;;;1.90;;
15443;SDS011;7822;48.146;11.576;2022-11-20T00:16:53;2.93;;;1.93;;
15443;SDS011;7822;48.146;11.576;2022-11-20T00:19:21;4.13;;;2.57;;
15443;SDS011;7822;48.146;11.576;2022-11-20T00:21:48;2.10;;;1.70;;
15443;SDS011;7822;48.146;11.576;2022-11-20T00:24:18;2.40;;;2.20;;
15443;SDS011;7822;48.146;11.576;2022-11-20T00:26:46;2.53;;;1.87;;
15443;SDS011;7822;48.146;11.576;2022-11-20T00:29:14;2.90;;;1.80;;
15443;SDS011;7822;48.146;11.576;2022-11-20T00:31:42;2.30;;;1.83;;
15443;SDS011;7822;48.146;11.576;2022-11-20T00:34:09;2.10;;;2.00;;
15443;SDS011;7822;48.146;11.576;2022-11-20T00:36:37;2.63;;;2.17;;
15443;SDS011;7822;48.146;11.576;2022-11-20T00:39:05;1.90;;;1.80;;
15443;SDS011;7822;48.146;11.576;2022-11-20T00:41:34;3.60;;;2.23;;
15443;SDS011;7822;48.146;11.576;2022-11-20T00:44:01;2.77;;;2.13;;
15443;SDS011;7822;48.146;11.576;2022-11-20T00:46:29;2.20;;;1.83;;
15443;SDS011;7822;48.146;11.576;2022-11-20T00:48:57;2.33;;;2.13;;
15443;SDS011;7822;48.146;11.576;2022-11-20T00:51:25;2.37;;;1.97;;
15443;SDS011;7822;48.146;11.576;2022-11-20T00:53:54;2.20;;;2.00;;
15443;SDS011;7822;48.146;11.576;2022-11-20T00:56:25;3.03;;;2.37;;
15443;SDS011;7822;48.146;11.576;2022-11-20T00:58:54;2.87;;;2.20;;
15443;SDS011;7822;48.146;11.576;2022-11-20T01:01:23;2.90;;;2.00;;
15443;SDS011;7822;48.146;11.576;2022-11-20T01:03:52;2.10;;;1.80;;
15443;SDS011;7822;48.146;11.576;2022-11-20T01:06:22;2.40;;;2.20;;
15443;SDS011;7822;48.146;11.576;2022-11-20T01:08:52;3.30;;;2.30;;
15443;SDS011;7822;48.146;11.576;2022-11-20T01:11:21;2.83;;;2.10;;
15443;SDS011;7822;48.146;11.576;2022-11-20T01:13:50;2.57;;;2.17;;
15443;SDS011;7822;48.146;11.576;2022-11-20T01:16:21;2.63;;;2.13;;
15443;SDS011;7822;48.146;11.576;2022-11-20T01:18:50;2.67;;;2.47;;
15443;SDS011;7822;48.146;11.576;2022-11-20T01:21:19;2.27;;;2.00;;
15443;SDS011;7822;48.146;11.576;2022-11-20T01:23:48;2.57;;;2.20;;
15443;SDS011;7822;48.146;11.576;2022-11-20T01:26:18;2.13;;;1.97;;
15443;SDS011;7822;48.146;11.576;2022-11-20T01:28:46;2.27;;;2.07;;
15443;SDS011;7822;48.146;11.576;2022-11-20T01:31:16;3.33;;;2.07;;
15443;SDS011;7822;48.146;11.576;2022-11-20T01:33:47;2.37;;;2.13;;
15443;SDS011;7822;48.146;11.576;2022-11-20T01:36:16;2.80;;;2.13;;
15443;SDS011;7822;48.146;11.576;2022-11-20T01:38:45;2.37;;;1.80;;
15443;SDS011;7822;48.146;11.576;2022-11-20T01:41:14;2.10;;;2.00;;
15443;SDS011;7822;48.146;11.576;2022-11-20T01:44:03;3.10;;;2.13;;
15443;SDS011;7822;48.146;11.576;2022-11-20T01:46:30;2.43;;;2.20;;
15443;SDS011;7822;48.146;11.576;2022-11-20T01:49:01;2.20;;;2.00;;
15443;SDS011;7822;48.146;11.576;2022-11-20T01:51:33;2.23;;;1.93;;
15443;SDS011;7822;48.146;11.576;2022-11-20T01:54:06;1.90;;;1.80;;
15443;SDS011;7822;48.146;11.576;2022-11-20T01:56:38;2.33;;;1.80;;
15443;SDS011;7822;48.146;11.576;2022-11-20T01:59:10;2.30;;;2.00;;
15443;SDS011;7822;48.146;11.576;2022-11-20T02:01:42;2.23;;;2.00;;
15443;SDS011;7822;48.146;11.576;2022-11-20T02:04:11;2.10;;;1.80;;
15443;SDS011;7822;48.146;11.576;2022-11-20T02:06:41;2.07;;;1.87;;
15443;SDS011;7822;48.146;11.576;2022-11-20T02:09:11;3.27;;;2.03;;
15443;SDS011;7822;48.146;11.576;2022-11-20T02:11:39;2.37;;;2.17;;
15443;SDS011;7822;48.146;11.576;2022-11-20T02:14:07;2.30;;;2.10;;
15443;SDS011;7822;48.146;11.576;2022-11-20T02:16:35;1.97;;;1.80;;
15443;SDS011;7822;48.146;11.576;2022-11-20T02:19:06;2.90;;;2.57;;
15443;SDS011;7822;48.146;11.576;2022-11-20T02:21:40;2.30;;;2.10;;
15443;SDS011;7822;48.146;11.576;2022-11-20T02:24:15;2.43;;;2.00;;
15443;SDS011;7822;48.146;11.576;2022-11-20T02:26:46;2.30;;;2.10;;
15443;SDS011;7822;48.146;11.576;2022-11-20T02:29:17;3.20;;;2.10;;
15443;SDS011;7822;48.146;11.576;2022-11-20T02:31:50;2.40;;;2.20;;
15443;SDS011;7822;48.146;11.576;2022-11-20T02:34:20;2.57;;;2.17;;
15443;SDS011;7822;48.146;11.576;2022-11-20T02:36:48;3.00;;;2.23;;
15443;SDS011;7822;48.146;11.576;2022-11-20T02:39:20;2.17;;;2.07;;
15443;SDS011;7822;48.146;11.576;2022-11-20T02:41:51;3.40;;;2.23;;
15443;SDS011;7822;48.146;11.576;2022-11-20T02:44:21;2.30;;;2.10;;
15443;SDS011;7822;48.146;11.576;2022-11-20T02:46:48;2.37;;;1.97;;
15443;SDS011;7822;48.146;11.576;2022-11-20T02:49:16;2.43;;;2.23;;
15443;SDS011;7822;48.146;11.576;2022-11-20T02:51:44;3.27;;;2.37;;
15443;SDS011;7822;48.146;11.576;2022-11-20T02:54:11;2.30;;;2.10;;
15443;SDS011;7822;48.146;11.576;2022-11-20T02:56:40;2.90;;;2.20;;
15443;SDS011;7822;48.146;11.576;2022-11-20T02:59:08;3.70;;;2.13;;
15443;SDS011;7822;48.146;11.576;2022-11-20T03:01:36;4.70;;;2.60;;
15443;SDS011;7822;48.146;11.576;2022-11-20T03:04:04;2.73;;;2.33;;
15443;SDS011;7822;48.146;11.576;2022-11-20T03:06:32;2.47;;;1.80;;
15443;SDS011;7822;48.146;11.576;2022-11-20T03:09:00;2.73;;;2.43;;
15443;SDS011;7822;48.146;11.576;2022-11-20T03:11:28;2.70;;;2.23;;
15443;SDS011;7822;48.146;11.576;2022-11-20T03:13:57;2.40;;;2.20;;
15443;SDS011;7822;48.146;11.576;2022-11-20T03:16:28;3.40;;;2.40;;
15443;SDS011;7822;48.146;11.576;2022-11-20T03:18:56;2.50;;;2.30;;
15443;SDS011;7822;48.146;11.576;2022-11-20T03:21:24;3.63;;;2.10;;
15443;SDS011;7822;48.146;11.576;2022-11-20T03:23:52;2.50;;;2.30;;
15443;SDS011;7822;48.146;11.576;2022-11-20T03:26:21;2.63;;;2.43;;
15443;SDS011;7822;48.146;11.576;2022-11-20T03:28:50;3.43;;;2.00;;
15443;SDS011;7822;48.146;11.576;2022-11-20T03:31:21;3.10;;;2.30;;
15443;SDS011;7822;48.146;11.576;2022-11-20T03:33:50;2.53;;;2.30;;
15443;SDS011;7822;48.146;11.576;2022-11-20T03:36:19;2.50;;;2.30;;
15443;SDS011;7822;48.146;11.576;2022-11-20T03:38:49;2.23;;;2.03;;
15443;SDS011;7822;48.146;11.576;2022-11-20T03:41:17;2.23;;;2.00;;
15443;SDS011;7822;48.146;11.576;2022-11-20T03:43:49;3.07;;;2.10;;
15443;SDS011;7822;48.146;11.576;2022-11-20T03:46:17;3.40;;;2.20;;
15443;SDS011;7822;48.146;11.576;2022-11-20T03:48:46;2.00;;;1.90;;
15443;SDS011;7822;48.146;11.576;2022-11-20T03:51:17;2.30;;;2.10;;
15443;SDS011;7822;48.146;11.576;2022-11-20T03:53:47;2.30;;;2.10;;
15443;SDS011;7822;48.146;11.576;2022-11-20T03:56:16;2.73;;;2.30;;
15443;SDS011;7822;48.146;11.576;2022-11-20T03:58:45;2.73;;;1.87;;
15443;SDS011;7822;48.146;11.576;2022-11-20T04:01:13;3.73;;;2.50;;
15443;SDS011;7822;48.146;11.576;2022-11-20T04:03:42;2.40;;;1.80;;
15443;SDS011;7822;48.146;11.576;2022-11-20T04:06:13;3.47;;;2.13;;
15443;SDS011;7822;48.146;11.576;2022-11-20T04:08:43;3.53;;;2.30;;
15443;SDS011;7822;48.146;11.576;2022-11-20T04:11:18;2.87;;;2.00;;
15443;SDS011;7822;48.146;11.576;2022-11-20T04:13:48;2.53;;;2.33;;
15443;SDS011;7822;48.146;11.576;2022-11-20T04:16:17;2.20;;;2.00;;
15443;SDS011;7822;48.146;11.576;2022-11-20T04:18:45;2.20;;;2.00;;
15443;SDS011;7822;48.146;11.576;2022-11-20T04:21:14;2.07;;;1.87;;
15443;SDS011;7822;48.146;11.576;2022-11-20T04:23:42;2.47;;;2.00;;
15443;SDS011;7822;48.146;11.576;2022-11-20T04:26:10;2.47;;;2.00;;
15443;SDS011;7822;48.146;11.576;2022-11-20T04:28:39;2.50;;;2.30;;
15443;SDS011;7822;48.146;11.576;2022-11-20T04:31:08;2.73;;;2.53;;
15443;SDS011;7822;48.146;11.576;2022-11-20T04:33:37;2.40;;;2.20;;
15443;SDS011;7822;48.146;11.576;2022-11-20T04:36:06;2.70;;;2.00;;
15443;SDS011;7822;48.146;11.576;2022-11-20T04:38:39;2.30;;;2.10;;
15443;SDS011;7822;48.146;11.576;2022-11-20T04:41:07;2.43;;;1.90;;
15443;SDS011;7822;48.146;11.576;2022-11-20T04:43:40;2.30;;;2.10;;
15443;SDS011;7822;48.146;11.576;2022-11-20T04:46:07;2.47;;;2.07;;
15443;SDS011;7822;48.146;11.576;2022-11-20T04:48:35;1.87;;;1.70;;
15443;SDS011;7822;48.146;11.576;2022-11-20T04:51:03;2.13;;;2.03;;
15443;SDS011;7822;48.146;11.576;2022-11-20T04:53:31;2.77;;;2.27;;
15443;SDS011;7822;48.146;11.576;2022-11-20T04:56:00;3.63;;;2.20;;
15443;SDS011;7822;48.146;11.576;2022-11-20T04:58:29;2.60;;;2.40;;
15443;SDS011;7822;48.146;11.576;2022-11-20T05:01:00;2.03;;;1.83;;
15443;SDS011;7822;48.146;11.576;2022-11-20T05:03:30;2.27;;;1.90;;
15443;SDS011;7822;48.146;11.576;2022-11-20T05:05:59;3.40;;;2.20;;
15443;SDS011;7822;48.146;11.576;2022-11-20T05:08:27;2.83;;;2.47;;
15443;SDS011;7822;48.146;11.576;2022-11-20T05:11:00;2.87;;;2.40;;
15443;SDS011;7822;48.146;11.576;2022-11-20T05:13:28;2.20;;;2.00;;
15443;SDS011;7822;48.146;11.576;2022-11-20T05:16:00;2.63;;;2.33;;
15443;SDS011;7822;48.146;11.576;2022-11-20T05:18:29;2.73;;;2.50;;
15443;SDS011;7822;48.146;11.576;2022-11-20T05:20:57;2.37;;;2.17;;
15443;SDS011;7822;48.146;11.576;2022-11-20T05:23:25;1.87;;;1.77;;
15443;SDS011;7822;48.146;11.576;2022-11-20T05:25:54;2.23;;;2.03;;
15443;SDS011;7822;48.146;11.576;2022-11-20T05:28:26;2.40;;;2.20;;
15443;SDS011;7822;48.146;11.576;2022-11-20T05:30:55;3.83;;;2.70;;
15443;SDS011;7822;48.146;11.576;2022-11-20T05:33:22;2.57;;;2.33;;
15443;SDS011;7822;48.146;11.576;2022-11-20T05:35:50;2.63;;;2.43;;
15443;SDS011;7822;48.146;11.576;2022-11-20T05:38:17;2.60;;;2.30;;
15443;SDS011;7822;48.146;11.576;2022-11-20T05:40:45;2.33;;;2.10;;
15443;SDS011;7822;48.146;11.576;2022-11-20T05:43:13;3.90;;;2.17;;
15443;SDS011;7822;48.146;11.576;2022-11-20T05:45:42;2.23;;;2.03;;
15443;SDS011;7822;48.146;11.576;2022-11-20T05:48:09;2.33;;;2.13;;
15443;SDS011;7822;48.146;11.576;2022-11-20T05:50:37;2.60;;;2.40;;
15443;SDS011;7822;48.146;11.576;2022-11-20T05:53:05;2.83;;;2.53;;
15443;SDS011;7822;48.146;11.576;2022-11-20T05:55:32;3.83;;;2.40;;
15443;SDS011;7822;48.146;11.576;2022-11-20T05:58:00;3.07;;;2.23;;
15443;SDS011;7822;48.146;11.576;2022-11-20T06:00:28;2.60;;;2.20;;
15443;SDS011;7822;48.146;11.576;2022-11-20T06:02:57;2.60;;;2.20;;
15443;SDS011;7822;48.146;11.576;2022-11-20T06:05:24;2.80;;;2.13;;
15443;SDS011;7822;48.146;11.576;2022-11-20T06:07:52;3.00;;;2.30;;
15443;SDS011;7822;48.146;11.576;2022-11-20T06:10:19;2.47;;;2.27;;
15443;SDS011;7822;48.146;11.576;2022-11-20T06:12:47;3.57;;;2.00;;
15443;SDS011;7822;48.146;11.576;2022-11-20T06:15:15;2.30;;;2.10;;
15443;SDS011;7822;48.146;11.576;2022-11-20T06:17:42;2.40;;;2.00;;
15443;SDS011;7822;48.146;11.576;2022-11-20T06:20:12;2.33;;;2.13;;
15443;SDS011;7822;48.146;11.576;2022-11-20T06:22:40;3.47;;;2.27;;
15443;SDS011;7822;48.146;11.576;2022-11-20T06:25:07;1.90;;;1.80;;
15443;SDS011;7822;48.146;11.576;2022-11-20T06:27:35;2.33;;;1.90;;
15443;SDS011;7822;48.146;11.576;2022-11-20T06:30:03;1.67;;;1.57;;
15443;SDS011;7822;48.146;11.576;2022-11-20T06:32:32;2.27;;;1.73;;
15443;SDS011;7822;48.146;11.576;2022-11-20T06:35:00;2.43;;;2.00;;
15443;SDS011;7822;48.146;11.576;2022-11-20T06:37:29;2.10;;;2.00;;
15443;SDS011;7822;48.146;11.576;2022-11-20T06:39:56;2.40;;;1.93;;
15443;SDS011;7822;48.146;11.576;2022-11-20T06:42:24;2.10;;;1.90;;
15443;SDS011;7822;48.146;11.576;2022-11-20T06:44:52;2.17;;;1.93;;
15443;SDS011;7822;48.146;11.576;2022-11-20T06:47:19;2.23;;;2.03;;
15443;SDS011;7822;48.146;11.576;2022-11-20T06:49:47;1.83;;;1.47;;
15443;SDS011;7822;48.146;11.576;2022-11-20T06:52:14;2.00;;;1.90;;
15443;SDS011;7822;48.146;11.576;2022-11-20T06:54:43;2.13;;;1.90;;
15443;SDS011;7822;48.146;11.576;2022-11-20T06:57:11;2.20;;;1.83;;
15443;SDS011;7822;48.146;11.576;2022-11-20T06:59:39;1.83;;;1.53;;
15443;SDS011;7822;48.146;11.576;2022-11-20T07:02:08;1.60;;;1.40;;
15443;SDS011;7822;48.146;11.576;2022-11-20T07:04:37;2.13;;;1.60;;
15443;SDS011;7822;48.146;11.576;2022-11-20T07:07:05;1.67;;;1.53;;
15443;SDS011;7822;48.146;11.576;2022-11-20T07:09:33;1.73;;;1.40;;
15443;SDS011;7822;48.146;11.576;2022-11-20T07:12:02;1.50;;;1.30;;
15443;SDS011;7822;48.146;11.576;2022-11-20T07:14:30;2.13;;;1.40;;
15443;SDS011;7822;48.146;11.576;2022-11-20T07:16:57;2.00;;;1.40;;
15443;SDS011;7822;48.146;11.576;2022-11-20T07:19:25;1.60;;;1.30;;
15443;SDS011;7822;48.146;11.576;2022-11-20T07:21:53;1.80;;;1.70;;
15443;SDS011;7822;48.146;11.576;2022-11-20T07:24:20;2.37;;;1.47;;
15443;SDS011;7822;48.146;11.576;2022-11-20T07:26:48;1.87;;;1.50;;
15443;SDS011;7822;48.146;11.576;2022-11-20T07:29:17;2.43;;;1.57;;
15443;SDS011;7822;48.146;11.576;2022-11-20T07:31:45;1.47;;;1.37;;
15443;SDS011;7822;48.146;11.576;2022-11-20T07:34:13;1.70;;;1.60;;
15443;SDS011;7822;48.146;11.576;2022-11-20T07:36:41;2.10;;;1.90;;
15443;SDS011;7822;48.146;11.576;2022-11-20T07:39:08;2.13;;;1.70;;
15443;SDS011;7822;48.146;11.576;2022-11-20T07:41:36;3.47;;;2.17;;
15443;SDS011;7822;48.146;11.576;2022-11-20T07:44:04;3.60;;;2.10;;
15443;SDS011;7822;48.146;11.576;2022-11-20T07:46:33;2.10;;;1.90;;
15443;SDS011;7822;48.146;11.576;2022-11-20T07:49:01;3.13;;;2.13;;
15443;SDS011;7822;48.146;11.576;2022-11-20T07:51:28;2.00;;;1.80;;
15443;SDS011;7822;48.146;11.576;2022-11-20T07:53:56;3.43;;;2.07;;
15443;SDS011;7822;48.146;11.576;2022-11-20T07:56:24;1.73;;;1.63;;
15443;SDS011;7822;48.146;11.576;2022-11-20T07:58:51;2.43;;;2.00;;
15443;SDS011;7822;48.146;11.576;2022-11-20T08:01:19;2.13;;;1.93;;
15443;SDS011;7822;48.146;11.576;2022-11-20T08:03:48;1.90;;;1.80;;
15443;SDS011;7822;48.146;11.576;2022-11-20T08:06:16;2.90;;;2.00;;
15443;SDS011;7822;48.146;11.576;2022-11-20T08:08:44;2.63;;;1.83;;
15443;SDS011;7822;48.146;11.576;2022-11-20T08:11:12;2.03;;;1.87;;
15443;SDS011;7822;48.146;11.576;2022-11-20T08:13:57;2.00;;;1.90;;
15443;SDS011;7822;48.146;11.576;2022-11-20T08:16:40;1.77;;;1.67;;
15443;SDS011;7822;48.146;11.576;2022-11-20T08:19:11;2.10;;;1.70;;
15443;SDS011;7822;48.146;11.576;2022-11-20T08:21:39;2.53;;;2.03;;
15443;SDS011;7822;48.146;11.576;2022-11-20T08:24:07;1.87;;;1.77;;
15443;SDS011;7822;48.146;11.576;2022-11-20T08:26:35;1.87;;;1.77;;
15443;SDS011;7822;48.146;11.576;2022-11-20T08:29:04;2.17;;;1.77;;
15443;SDS011;7822;48.146;11.576;2022-11-20T08:31:33;2.33;;;2.07;;
15443;SDS011;7822;48.146;11.576;2022-11-20T08:34:00;1.80;;;1.70;;
15443;SDS011;7822;48.146;11.576;2022-11-20T08:36:35;2.10;;;1.90;;
15443;SDS011;7822;48.146;11.576;2022-11-20T08:39:03;1.90;;;1.80;;
15443;SDS011;7822;48.146;11.576;2022-11-20T08:41:31;2.67;;;2.23;;
15443;SDS011;7822;48.146;11.576;2022-11-20T08:44:00;2.03;;;1.70;;
15443;SDS011;7822;48.146;11.576;2022-11-20T08:46:31;2.00;;;1.80;;
15443;SDS011;7822;48.146;11.576;2022-11-20T08:49:05;3.13;;;2.13;;
15443;SDS011;7822;48.146;11.576;2022-11-20T08:51:37;3.13;;;2.10;;
15443;SDS011;7822;48.146;11.576;2022-11-20T08:54:05;2.43;;;2.10;;
15443;SDS011;7822;48.146;11.576;2022-11-20T08:56:34;2.83;;;1.93;;
15443;SDS011;7822;48.146;11.576;2022-11-20T08:59:02;2.30;;;1.90;;
15443;SDS011;7822;48.146;11.576;2022-11-20T09:01:49;2.87;;;2.10;;
15443;SDS011;7822;48.146;11.576;2022-11-20T09:04:17;1.67;;;1.57;;
15443;SDS011;7822;48.146;11.576;2022-11-20T09:06:46;2.00;;;1.80;;
15443;SDS011;7822;48.146;11.576;2022-11-20T09:09:17;2.20;;;2.00;;
15443;SDS011;7822;48.146;11.576;2022-11-20T09:11:45;1.90;;;1.80;;
15443;SDS011;7822;48.146;11.576;2022-11-20T09:14:12;1.50;;;1.40;;
15443;SDS011;7822;48.146;11.576;2022-11-20T09:16:40;2.03;;;1.70;;
15443;SDS011;7822;48.146;11.576;2022-11-20T09:19:08;1.90;;;1.80;;
15443;SDS011;7822;48.146;11.576;2022-11-20T09:21:57;2.10;;;1.90;;
15443;SDS011;7822;48.146;11.576;2022-11-20T09:24:26;1.70;;;1.60;;
15443;SDS011;7822;48.146;11.576;2022-11-20T09:26:54;1.40;;;1.30;;
15443;SDS011;7822;48.146;11.576;2022-11-20T09:29:21;2.70;;;1.60;;
15443;SDS011;7822;48.146;11.576;2022-11-20T09:31:49;1.93;;;1.60;;
15443;SDS011;7822;48.146;11.576;2022-11-20T09:34:17;1.83;;;1.40;;
15443;SDS011;7822;48.146;11.576;2022-11-20T09:36:44;1.53;;;1.43;;
15443;SDS011;7822;48.146;11.576;2022-11-20T09:39:13;2.17;;;1.40;;
15443;SDS011;7822;48.146;11.576;2022-11-20T09:41:54;1.43;;;1.30;;
15443;SDS011;7822;48.146;11.576;2022-11-20T09:44:36;1.40;;;1.30;;
15443;SDS011;7822;48.146;11.576;2022-11-20T09:47:23;2.90;;;1.60;;
15443;SDS011;7822;48.146;11.576;2022-11-20T09:50:03;1.30;;;1.20;;
15443;SDS011;7822;48.146;11.576;2022-11-20T09:52:47;1.50;;;1.40;;
15443;SDS011;7822;48.146;11.576;2022-11-20T09:55:25;1.20;;;1.10;;
15443;SDS011;7822;48.146;11.576;2022-11-20T09:57:55;1.70;;;1.40;;
15443;SDS011;7822;48.146;11.576;2022-11-20T10:00:26;1.73;;;1.23;;
15443;SDS011;7822;48.146;11.576;2022-11-20T10:02:58;1.30;;;1.20;;
15443;SDS011;7822;48.146;11.576;2022-11-20T10:05:33;1.03;;;1.00;;
15443;SDS011;7822;48.146;11.576;2022-11-20T10:08:10;1.60;;;1.20;;
15443;SDS011;7822;48.146;11.576;2022-11-20T10:10:46;2.27;;;1.80;;
15443;SDS011;7822;48.146;11.576;2022-11-20T10:13:29;1.50;;;1.40;;
15443;SDS011;7822;48.146;11.576;2022-11-20T10:16:11;2.07;;;1.80;;
15443;SDS011;7822;48.146;11.576;2022-11-20T10:18:53;1.43;;;1.30;;
15443;SDS011;7822;48.146;11.576;2022-11-20T10:21:33;1.90;;;1.60;;
15443;SDS011;7822;48.146;11.576;2022-11-20T10:24:23;2.30;;;1.60;;
15443;SDS011;7822;48.146;11.576;2022-11-20T10:27:03;1.70;;;1.30;;
15443;SDS011;7822;48.146;11.576;2022-11-20T10:29:43;1.40;;;1.30;;
15443;SDS011;7822;48.146;11.576;2022-11-20T10:32:18;2.00;;;1.67;;
15443;SDS011;7822;48.146;11.576;2022-11-20T10:34:50;1.67;;;1.37;;
15443;SDS011;7822;48.146;11.576;2022-11-20T10:37:22;1.00;;;0.90;;
15443;SDS011;7822;48.146;11.576;2022-11-20T10:39:54;1.50;;;1.33;;
15443;SDS011;7822;48.146;11.576;2022-11-20T10:42:30;2.07;;;1.07;;
15443;SDS011;7822;48.146;11.576;2022-11-20T10:45:09;1.70;;;1.10;;
15443;SDS011;7822;48.146;11.576;2022-11-20T10:47:43;1.10;;;1.00;;
15443;SDS011;7822;48.146;11.576;2022-11-20T10:50:13;2.73;;;2.53;;
15443;SDS011;7822;48.146;11.576;2022-11-20T10:52:49;1.20;;;1.10;;
15443;SDS011;7822;48.146;11.576;2022-11-20T10:55:25;1.10;;;1.00;;
15443;SDS011;7822;48.146;11.576;2022-11-20T10:58:00;3.80;;;1.07;;
15443;SDS011;7822;48.146;11.576;2022-11-20T11:00:33;1.30;;;1.20;;
15443;SDS011;7822;48.146;11.576;2022-11-20T11:03:00;0.93;;;0.90;;
15443;SDS011;7822;48.146;11.576;2022-11-20T11:05:33;1.17;;;1.00;;
15443;SDS011;7822;48.146;11.576;2022-11-20T11:08:08;1.83;;;1.20;;
15443;SDS011;7822;48.146;11.576;2022-11-20T11:10:40;1.40;;;1.17;;
15443;SDS011;7822;48.146;11.576;2022-11-20T11:13:21;2.10;;;1.20;;
15443;SDS011;7822;48.146;11.576;2022-11-20T11:15:49;1.03;;;0.93;;
15443;SDS011;7822;48.146;11.576;2022-11-20T11:18:24;1.33;;;1.23;;
15443;SDS011;7822;48.146;11.576;2022-11-20T11:20:53;0.80;;;0.80;;
15443;SDS011;7822;48.146;11.576;2022-11-20T11:23:26;1.00;;;0.90;;
15443;SDS011;7822;48.146;11.576;2022-11-20T11:25:59;1.07;;;0.90;;
15443;SDS011;7822;48.146;11.576;2022-11-20T11:28:28;1.20;;;1.10;;
15443;SDS011;7822;48.146;11.576;2022-11-20T11:30:56;1.47;;;1.17;;
15443;SDS011;7822;48.146;11.576;2022-11-20T11:33:25;0.80;;;0.80;;
15443;SDS011;7822;48.146;11.576;2022-11-20T11:35:55;1.07;;;1.00;;
15443;SDS011;7822;48.146;11.576;2022-11-20T11:38:28;1.53;;;1.00;;
15443;SDS011;7822;48.146;11.576;2022-11-20T11:40:58;1.63;;;1.23;;
15443;SDS011;7822;48.146;11.576;2022-11-20T11:43:26;1.23;;;1.10;;
15443;SDS011;7822;48.146;11.576;2022-11-20T11:49:11;2.03;;;1.13;;
15443;SDS011;7822;48.146;11.576;2022-11-20T11:51:51;1.23;;;1.10;;
15443;SDS011;7822;48.146;11.576;2022-11-20T11:54:28;1.40;;;1.30;;
15443;SDS011;7822;48.146;11.576;2022-11-20T11:57:03;1.43;;;0.90;;
15443;SDS011;7822;48.146;11.576;2022-11-20T11:59:41;1.00;;;1.00;;
15443;SDS011;7822;48.146;11.576;2022-11-20T12:02:24;1.27;;;1.13;;
15443;SDS011;7822;48.146;11.576;2022-11-20T12:04:59;2.73;;;1.27;;
15443;SDS011;7822;48.146;11.576;2022-11-20T12:07:35;1.27;;;1.00;;
15443;SDS011;7822;48.146;11.576;2022-11-20T12:10:17;1.23;;;1.13;;
15443;SDS011;7822;48.146;11.576;2022-11-20T12:12:49;1.00;;;1.00;;
15443;SDS011;7822;48.146;11.576;2022-11-20T12:15:30;0.87;;;0.87;;
15443;SDS011;7822;48.146;11.576;2022-11-20T12:18:00;1.63;;;1.00;;
15443;SDS011;7822;48.146;11.576;2022-11-20T12:20:29;1.20;;;1.10;;
15443;SDS011;7822;48.146;11.576;2022-11-20T12:23:04;1.43;;;1.07;;
15443;SDS011;7822;48.146;11.576;2022-11-20T12:25:42;2.43;;;1.63;;
15443;SDS011;7822;48.146;11.576;2022-11-20T12:28:26;1.27;;;1.00;;
15443;SDS011;7822;48.146;11.576;2022-11-20T12:31:13;1.10;;;1.00;;
15443;SDS011;7822;48.146;11.576;2022-11-20T12:34:00;1.03;;;0.97;;
15443;SDS011;7822;48.146;11.576;2022-11-20T12:36:42;1.37;;;1.27;;
15443;SDS011;7822;48.146;11.576;2022-11-20T12:39:25;1.20;;;1.10;;
15443;SDS011;7822;48.146;11.576;2022-11-20T12:42:05;1.30;;;1.17;;
15443;SDS011;7822;48.146;11.576;2022-11-20T12:45:06;0.90;;;0.90;;
15443;SDS011;7822;48.146;11.576;2022-11-20T12:47:56;1.10;;;1.00;;
15443;SDS011;7822;48.146;11.576;2022-11-20T12:50:43;1.30;;;1.10;;
15443;SDS011;7822;48.146;11.576;2022-11-20T12:53:39;1.23;;;1.13;;
15443;SDS011;7822;48.146;11.576;2022-11-20T12:56:16;1.50;;;1.10;;
15443;SDS011;7822;48.146;11.576;2022-11-20T12:58:52;2.00;;;1.50;;
15443;SDS011;7822;48.146;11.576;2022-11-20T13:01:32;1.20;;;1.07;;
15443;SDS011;7822;48.146;11.576;2022-11-20T13:04:15;0.97;;;0.87;;
15443;SDS011;7822;48.146;11.576;2022-11-20T13:06:52;2.07;;;1.20;;
15443;SDS011;7822;48.146;11.576;2022-11-20T13:09:21;1.10;;;1.10;;
15443;SDS011;7822;48.146;11.576;2022-11-20T13:11:51;1.20;;;1.10;;
15443;SDS011;7822;48.146;11.576;2022-11-20T13:14:31;1.90;;;1.10;;
15443;SDS011;7822;48.146;11.576;2022-11-20T13:17:04;0.70;;;0.70;;
15443;SDS011;7822;48.146;11.576;2022-11-20T13:19:38;1.27;;;1.17;;
15443;SDS011;7822;48.146;11.576;2022-11-20T13:22:07;1.17;;;1.10;;
15443;SDS011;7822;48.146;11.576;2022-11-20T13:24:36;1.27;;;1.10;;
15443;SDS011;7822;48.146;11.576;2022-11-20T13:27:05;1.17;;;1.10;;
15443;SDS011;7822;48.146;11.576;2022-11-20T13:29:46;1.77;;;1.30;;
15443;SDS011;7822;48.146;11.576;2022-11-20T13:32:27;1.40;;;1.30;;
15443;SDS011;7822;48.146;11.576;2022-11-20T13:35:00;1.63;;;1.30;;
15443;SDS011;7822;48.146;11.576;2022-11-20T13:37:31;1.13;;;1.10;;
15443;SDS011;7822;48.146;11.576;2022-11-20T13:43:00;1.33;;;1.23;;
15443;SDS011;7822;48.146;11.576;2022-11-20T13:45:31;1.30;;;1.20;;
15443;SDS011;7822;48.146;11.576;2022-11-20T13:48:01;1.53;;;1.43;;
15443;SDS011;7822;48.146;11.576;2022-11-20T13:50:43;1.37;;;1.27;;
15443;SDS011;7822;48.146;11.576;2022-11-20T13:53:23;1.50;;;1.20;;
15443;SDS011;7822;48.146;11.576;2022-11-20T13:56:00;1.50;;;1.40;;
15443;SDS011;7822;48.146;11.576;2022-11-20T13:58:39;1.47;;;1.37;;
15443;SDS011;7822;48.146;11.576;2022-11-20T14:01:16;1.93;;;1.50;;
15443;SDS011;7822;48.146;11.576;2022-11-20T14:03:47;2.10;;;1.63;;
15443;SDS011;7822;48.146;11.576;2022-11-20T14:06:34;2.33;;;1.60;;
15443;SDS011;7822;48.146;11.576;2022-11-20T14:09:09;1.70;;;1.60;;
15443;SDS011;7822;48.146;11.576;2022-11-20T14:11:45;1.50;;;1.40;;
15443;SDS011;7822;48.146;11.576;2022-11-20T14:14:15;1.67;;;1.57;;
15443;SDS011;7822;48.146;11.576;2022-11-20T14:16:45;1.37;;;1.27;;
15443;SDS011;7822;48.146;11.576;2022-11-20T14:19:26;1.87;;;1.20;;
15443;SDS011;7822;48.146;11.576;2022-11-20T14:22:17;1.30;;;1.20;;
15443;SDS011;7822;48.146;11.576;2022-11-20T14:24:46;1.63;;;1.30;;
15443;SDS011;7822;48.146;11.576;2022-11-20T14:27:15;1.30;;;1.20;;
15443;SDS011;7822;48.146;11.576;2022-11-20T14:29:45;2.07;;;1.30;;
15443;SDS011;7822;48.146;11.576;2022-11-20T14:32:15;1.47;;;1.37;;
15443;SDS011;7822;48.146;11.576;2022-11-20T14:34:44;1.50;;;1.40;;
15443;SDS011;7822;48.146;11.576;2022-11-20T14:37:18;1.37;;;1.27;;
15443;SDS011;7822;48.146;11.576;2022-11-20T14:39:49;1.30;;;1.20;;
15443;SDS011;7822;48.146;11.576;2022-11-20T14:42:19;1.30;;;1.20;;
15443;SDS011;7822;48.146;11.576;2022-11-20T14:44:49;1.60;;;1.47;;
15443;SDS011;7822;48.146;11.576;2022-11-20T14:47:18;1.50;;;1.33;;
15443;SDS011;7822;48.146;11.576;2022-11-20T14:49:49;1.23;;;1.13;;
15443;SDS011;7822;48.146;11.576;2022-11-20T14:52:20;1.50;;;1.20;;
15443;SDS011;7822;48.146;11.576;2022-11-20T14:54:50;2.10;;;1.40;;
15443;SDS011;7822;48.146;11.576;2022-11-20T14:57:22;1.83;;;1.30;;
15443;SDS011;7822;48.146;11.576;2022-11-20T15:00:03;1.33;;;1.00;;
15443;SDS011;7822;48.146;11.576;2022-11-20T15:02:32;1.10;;;0.97;;
15443;SDS011;7822;48.146;11.576;2022-11-20T15:05:01;1.10;;;0.60;;
15443;SDS011;7822;48.146;11.576;2022-11-20T15:07:31;1.27;;;0.80;;
15443;SDS011;7822;48.146;11.576;2022-11-20T15:10:02;1.27;;;0.83;;
15443;SDS011;7822;48.146;11.576;2022-11-20T15:12:32;1.37;;;1.20;;
15443;SDS011;7822;48.146;11.576;2022-11-20T15:15:02;0.87;;;0.83;;
15443;SDS011;7822;48.146;11.576;2022-11-20T15:17:32;0.77;;;0.70;;
15443;SDS011;7822;48.146;11.576;2022-11-20T15:20:02;0.70;;;0.50;;